Rowley Shoals, Australia
Current Conditions -  °F | °C
As of 11:30 PM on Wednesday 22 Oct 2014 (Local Time) from YPPD Reporting Station
Clear Clear  
Wind Chill: 86°   Ceiling: Unl
Heat Index: 86°   Visibility: 6mi
Dew Point: 59°   Wind: 14mph
Humidity: 40%   Direction: 230°SW
Pressure: 29.83"   Gusts: NA
Location:  17.53°S, 118.95°E
Report Text: YPPD 221530Z AUTO 23012KT 9999 // NCD 30/15 Q1010
Loading
Personal Weather Stations






























Interactive Weather Map
Tropical Storm Tracking
New forecast layout! Learn more

10-Day Weather Forecast

Advertisements
Track Severe Weather on mobile